Time;durP1;ratioP1;P1;durP2;ratioP2;P2;SDS_P1;SDS_P2;PMS_P1;PMS_P2;Temp;Humidity;BMP_temperature;BMP_pressure;BME280_temperature;BME280_humidity;BME280_pressure;Samples;Min_cycle;Max_cycle;Signal;HPM_P1;HPM_P2
2023/11/29 00:00:17;;;;;;;1.40;1.30;;;19.50;56.00;;;;;;4972705;28;20188;-68
2023/11/29 00:02:43;;;;;;;1.60;1.50;;;19.50;56.00;;;;;;4972285;28;20433;-67
2023/11/29 00:05:10;;;;;;;1.57;1.43;;;19.50;56.00;;;;;;4972154;28;20201;-67
2023/11/29 00:07:36;;;;;;;1.40;1.20;;;19.50;56.00;;;;;;4972219;28;20565;-68
2023/11/29 00:10:02;;;;;;;1.80;1.30;;;19.50;56.00;;;;;;4972381;28;20912;-68
2023/11/29 00:12:27;;;;;;;1.47;1.27;;;19.50;56.10;;;;;;4970773;28;20465;-67
2023/11/29 00:14:53;;;;;;;1.80;1.10;;;19.50;56.00;;;;;;4972172;28;20483;-68
2023/11/29 00:17:19;;;;;;;2.10;1.47;;;19.50;56.00;;;;;;4972251;28;20204;-67
2023/11/29 00:19:44;;;;;;;1.63;1.20;;;19.50;56.00;;;;;;4971988;28;20178;-68
2023/11/29 00:22:11;;;;;;;1.50;1.20;;;19.50;56.10;;;;;;4971901;28;20819;-67
2023/11/29 00:24:36;;;;;;;1.30;1.17;;;19.50;56.00;;;;;;4972011;28;20209;-67
2023/11/29 00:27:04;;;;;;;1.53;1.33;;;19.50;56.00;;;;;;4971734;28;21265;-67
2023/11/29 00:29:30;;;;;;;1.63;1.27;;;19.50;56.00;;;;;;4971781;28;20193;-68
2023/11/29 00:31:55;;;;;;;2.00;1.50;;;19.50;56.10;;;;;;4971650;28;20966;-68
2023/11/29 00:34:21;;;;;;;1.37;1.20;;;19.50;56.10;;;;;;4971667;28;20473;-68
2023/11/29 00:36:49;;;;;;;1.50;1.40;;;19.50;56.10;;;;;;4971648;28;20177;-68
2023/11/29 00:39:14;;;;;;;1.40;1.20;;;19.50;56.10;;;;;;4971691;28;20594;-68
2023/11/29 00:41:40;;;;;;;1.60;1.10;;;19.40;56.00;;;;;;4971906;28;20479;-68
2023/11/29 00:44:06;;;;;;;1.33;1.03;;;19.40;56.00;;;;;;4971505;28;20185;-68
2023/11/29 00:46:31;;;;;;;1.70;1.40;;;19.50;56.10;;;;;;4971541;28;20668;-68
2023/11/29 00:48:57;;;;;;;2.17;1.57;;;19.40;56.00;;;;;;4971582;28;20216;-67
2023/11/29 00:51:22;;;;;;;1.60;1.20;;;19.40;56.00;;;;;;4971361;28;20197;-69
2023/11/29 00:53:48;;;;;;;1.37;1.10;;;19.40;56.00;;;;;;4971443;28;20177;-66
2023/11/29 00:56:14;;;;;;;1.60;1.20;;;19.40;56.00;;;;;;4971280;28;20960;-67
2023/11/29 00:58:40;;;;;;;1.93;1.70;;;19.40;56.00;;;;;;4971377;28;20457;-68
2023/11/29 01:01:05;;;;;;;1.97;1.60;;;19.40;56.00;;;;;;4971390;28;20209;-68
2023/11/29 01:03:31;;;;;;;1.40;1.10;;;19.40;56.00;;;;;;4971244;28;20243;-68
2023/11/29 01:05:56;;;;;;;1.57;1.20;;;19.40;56.00;;;;;;4971308;28;20201;-68
2023/11/29 01:08:25;;;;;;;1.73;1.40;;;19.50;56.10;;;;;;4971264;28;20189;-67
2023/11/29 01:10:51;;;;;;;1.30;1.20;;;19.50;56.10;;;;;;4971195;28;20182;-67
2023/11/29 01:13:19;;;;;;;1.50;1.20;;;19.40;56.00;;;;;;4971183;28;20409;-68
2023/11/29 01:15:47;;;;;;;1.40;1.10;;;19.40;56.00;;;;;;4971382;28;20944;-68
2023/11/29 01:18:14;;;;;;;1.57;1.10;;;19.40;56.00;;;;;;4971218;28;20500;-67
2023/11/29 01:20:41;;;;;;;1.37;1.03;;;19.40;56.00;;;;;;4971422;28;20908;-68
2023/11/29 01:23:06;;;;;;;1.50;1.03;;;19.40;56.00;;;;;;4969741;28;20483;-68
2023/11/29 01:25:32;;;;;;;2.27;1.40;;;19.40;56.10;;;;;;4970889;28;20464;-68
2023/11/29 01:27:58;;;;;;;1.60;1.40;;;19.40;56.00;;;;;;4971114;28;20178;-68
2023/11/29 01:30:23;;;;;;;1.60;1.40;;;19.40;56.00;;;;;;4971035;28;20357;-68
2023/11/29 01:32:49;;;;;;;2.10;1.30;;;19.40;56.10;;;;;;4971018;28;20205;-68
2023/11/29 01:35:14;;;;;;;1.17;1.07;;;19.40;56.10;;;;;;4970928;28;20219;-68
2023/11/29 01:37:40;;;;;;;1.57;1.20;;;19.40;56.10;;;;;;4971049;28;20180;-67
2023/11/29 01:40:08;;;;;;;1.60;1.20;;;19.40;56.10;;;;;;4970960;28;20181;-68
2023/11/29 01:42:34;;;;;;;1.40;1.30;;;19.40;56.10;;;;;;4971032;28;20181;-68
2023/11/29 01:45:00;;;;;;;1.40;1.30;;;19.40;56.10;;;;;;4972754;28;20947;-67
2023/11/29 01:47:26;;;;;;;1.20;1.10;;;19.40;56.10;;;;;;4974652;28;20413;-68
2023/11/29 01:49:51;;;;;;;1.70;1.20;;;19.40;56.10;;;;;;4973304;28;20914;-68
2023/11/29 01:52:17;;;;;;;1.57;1.33;;;19.40;56.10;;;;;;4974352;28;20625;-68
2023/11/29 01:54:43;;;;;;;1.60;1.20;;;19.40;56.10;;;;;;4987995;28;20209;-68
2023/11/29 01:57:09;;;;;;;2.50;1.30;;;19.40;56.10;;;;;;4993718;28;20467;-67
2023/11/29 01:59:34;;;;;;;1.50;1.20;;;19.40;56.10;;;;;;4993635;28;20193;-68
2023/11/29 02:02:01;;;;;;;1.30;1.07;;;19.40;56.10;;;;;;4993659;28;20181;-68
2023/11/29 02:04:27;;;;;;;1.47;1.20;;;19.40;56.10;;;;;;4993516;28;20296;-68
2023/11/29 02:06:52;;;;;;;1.60;1.27;;;19.40;56.10;;;;;;4993705;28;20503;-68
2023/11/29 02:09:18;;;;;;;1.67;1.23;;;19.40;56.10;;;;;;4993680;28;20191;-68
2023/11/29 02:11:45;;;;;;;1.40;1.27;;;19.40;56.10;;;;;;4993555;28;20196;-68
2023/11/29 02:14:10;;;;;;;1.70;1.30;;;19.40;56.10;;;;;;4993515;28;20280;-68
2023/11/29 02:16:36;;;;;;;1.30;1.00;;;19.40;56.10;;;;;;4993530;28;20483;-68
2023/11/29 02:19:02;;;;;;;1.47;1.13;;;19.40;56.10;;;;;;4993780;28;20181;-68
2023/11/29 02:21:28;;;;;;;1.70;1.20;;;19.40;56.10;;;;;;4993596;28;20412;-68
2023/11/29 02:24:07;;;;;;;1.63;1.20;;;19.40;56.70;;;;;;4993687;28;20180;-68
2023/11/29 02:26:33;;;;;;;1.33;1.07;;;19.40;56.10;;;;;;4993408;28;20203;-68
2023/11/29 02:29:00;;;;;;;1.43;1.23;;;19.40;56.10;;;;;;4993323;28;20416;-68
2023/11/29 02:31:25;;;;;;;1.40;1.00;;;19.40;56.10;;;;;;4993179;28;20200;-68
2023/11/29 02:33:51;;;;;;;1.40;1.20;;;19.40;56.10;;;;;;4993309;28;21306;-68
2023/11/29 02:36:17;;;;;;;1.80;1.20;;;19.40;56.10;;;;;;4993269;28;20196;-68
2023/11/29 02:38:42;;;;;;;1.80;1.20;;;19.30;56.10;;;;;;4991771;28;20200;-68
2023/11/29 02:41:08;;;;;;;1.40;1.30;;;19.40;56.10;;;;;;4993064;28;20644;-68
2023/11/29 02:43:33;;;;;;;1.53;1.30;;;19.40;56.10;;;;;;4993053;28;20185;-68
2023/11/29 02:45:59;;;;;;;1.30;0.90;;;19.40;56.70;;;;;;4993224;28;20220;-67
2023/11/29 02:48:25;;;;;;;1.20;1.10;;;19.30;56.10;;;;;;4991665;28;20264;-68
2023/11/29 02:50:50;;;;;;;1.10;0.90;;;19.30;56.10;;;;;;4992865;28;20974;-67
2023/11/29 02:53:16;;;;;;;1.97;1.40;;;19.40;56.10;;;;;;4992910;28;20226;-68
2023/11/29 02:55:41;;;;;;;1.50;1.03;;;19.40;56.10;;;;;;4992033;28;20204;-68
2023/11/29 02:58:07;;;;;;;1.37;1.10;;;19.40;56.10;;;;;;4992464;28;20177;-68
2023/11/29 03:00:32;;;;;;;1.50;1.10;;;19.30;56.10;;;;;;4991751;28;20177;-68
2023/11/29 03:02:58;;;;;;;1.70;1.30;;;19.30;56.10;;;;;;4992626;28;20196;-68
2023/11/29 03:05:24;;;;;;;1.80;1.30;;;19.30;56.10;;;;;;4992580;28;20698;-68
2023/11/29 03:07:50;;;;;;;1.10;0.90;;;19.30;56.10;;;;;;4992560;28;20537;-68
2023/11/29 03:10:16;;;;;;;1.70;1.33;;;19.30;56.10;;;;;;4992558;28;20482;-68
2023/11/29 03:12:41;;;;;;;1.50;1.00;;;19.30;56.10;;;;;;4991130;28;20215;-68
2023/11/29 03:15:09;;;;;;;1.93;1.03;;;19.30;56.10;;;;;;4992407;28;20735;-68
2023/11/29 03:17:34;;;;;;;2.03;1.23;;;19.30;56.10;;;;;;4992384;28;20177;-68
2023/11/29 03:20:00;;;;;;;0.97;0.87;;;19.30;56.10;;;;;;4992354;28;20423;-67
2023/11/29 03:22:26;;;;;;;1.10;0.97;;;19.30;56.10;;;;;;4992533;28;20184;-68
2023/11/29 03:24:51;;;;;;;1.30;0.97;;;19.30;56.10;;;;;;4992471;28;20814;-68
2023/11/29 03:27:18;;;;;;;1.17;1.07;;;19.30;56.10;;;;;;4992280;28;20240;-68
2023/11/29 03:29:44;;;;;;;1.10;1.00;;;19.30;56.10;;;;;;4992466;28;20185;-68
2023/11/29 03:32:10;;;;;;;1.40;1.30;;;19.30;56.10;;;;;;4992106;28;20842;-68
2023/11/29 03:34:36;;;;;;;1.57;1.33;;;19.30;56.10;;;;;;4992313;28;20193;-68
2023/11/29 03:37:01;;;;;;;1.40;1.10;;;19.30;56.10;;;;;;4992122;28;20602;-68
2023/11/29 03:39:27;;;;;;;1.23;1.00;;;19.30;56.10;;;;;;4991937;28;20191;-68
2023/11/29 03:41:52;;;;;;;1.70;1.60;;;19.30;56.10;;;;;;4991913;28;20177;-68
2023/11/29 03:44:18;;;;;;;1.53;0.93;;;19.30;56.10;;;;;;4992055;28;20264;-68
2023/11/29 03:46:44;;;;;;;1.47;1.20;;;19.30;56.10;;;;;;4991745;28;20188;-68
2023/11/29 03:49:09;;;;;;;1.67;1.50;;;19.30;56.10;;;;;;4992110;28;20185;-68
2023/11/29 03:51:35;;;;;;;1.50;1.10;;;19.30;56.10;;;;;;4991947;28;20743;-68
2023/11/29 03:54:00;;;;;;;1.23;1.00;;;19.30;56.10;;;;;;4991707;28;20185;-68
2023/11/29 03:56:26;;;;;;;1.57;1.30;;;19.30;56.10;;;;;;4991657;28;20184;-68
2023/11/29 03:58:52;;;;;;;1.53;1.13;;;19.30;56.10;;;;;;4991676;28;20644;-69
2023/11/29 04:01:17;;;;;;;1.23;0.90;;;19.30;56.20;;;;;;4991608;28;20256;-68
2023/11/29 04:03:43;;;;;;;1.63;1.07;;;19.30;56.10;;;;;;4991552;28;20755;-68
2023/11/29 04:06:08;;;;;;;1.40;1.10;;;19.30;56.10;;;;;;4991439;28;20224;-68
2023/11/29 04:08:35;;;;;;;1.80;1.20;;;19.30;56.10;;;;;;4991172;28;20264;-68
2023/11/29 04:11:01;;;;;;;1.50;1.03;;;19.30;56.10;;;;;;4991437;28;20761;-68
2023/11/29 04:13:26;;;;;;;1.30;1.10;;;19.30;56.10;;;;;;4991336;28;20491;-68
2023/11/29 04:15:52;;;;;;;2.60;1.67;;;19.30;56.10;;;;;;4991378;28;20683;-68
2023/11/29 04:18:18;;;;;;;2.10;1.30;;;19.30;56.10;;;;;;4991316;28;20188;-68
2023/11/29 04:20:43;;;;;;;1.33;1.10;;;19.30;56.10;;;;;;4991210;28;20173;-68
2023/11/29 04:23:09;;;;;;;1.30;1.20;;;19.30;56.10;;;;;;4991270;28;20185;-68
2023/11/29 04:25:36;;;;;;;1.33;1.03;;;19.30;56.10;;;;;;4991002;28;20307;-68
2023/11/29 04:28:03;;;;;;;1.43;0.80;;;19.30;56.10;;;;;;4991183;28;20191;-68
2023/11/29 04:30:28;;;;;;;1.60;1.20;;;19.30;56.10;;;;;;4991384;28;20439;-68
2023/11/29 04:32:54;;;;;;;1.13;0.90;;;19.30;56.10;;;;;;4989571;28;20577;-68
2023/11/29 04:35:19;;;;;;;1.30;1.00;;;19.30;56.10;;;;;;4997310;28;20207;-69
2023/11/29 04:37:45;;;;;;;1.80;1.30;;;19.30;56.10;;;;;;5010533;28;20180;-68
2023/11/29 04:40:11;;;;;;;1.60;1.10;;;19.30;56.10;;;;;;5010572;28;20173;-68
2023/11/29 04:42:37;;;;;;;1.30;1.03;;;19.30;56.70;;;;;;5010884;28;20212;-68
2023/11/29 04:45:03;;;;;;;1.30;1.00;;;19.30;56.10;;;;;;5010709;28;20269;-68
2023/11/29 04:47:28;;;;;;;1.00;0.80;;;19.30;56.70;;;;;;5010400;28;20235;-68
2023/11/29 04:49:54;;;;;;;1.30;1.10;;;19.30;56.10;;;;;;5010374;28;20411;-68
2023/11/29 04:52:20;;;;;;;1.70;1.40;;;19.30;56.10;;;;;;5008951;28;20231;-68
2023/11/29 04:54:45;;;;;;;1.50;1.00;;;19.30;56.10;;;;;;5010326;28;20576;-69
2023/11/29 04:57:11;;;;;;;1.60;1.03;;;19.20;56.40;;;;;;5010343;28;20599;-67
2023/11/29 04:59:38;;;;;;;1.30;0.93;;;19.20;56.10;;;;;;5010376;28;20222;-68
2023/11/29 05:02:04;;;;;;;1.20;1.00;;;19.30;56.10;;;;;;5010359;28;20226;-68
2023/11/29 05:04:30;;;;;;;1.60;1.20;;;19.30;56.20;;;;;;5008889;28;20954;-67
2023/11/29 05:06:55;;;;;;;2.00;1.10;;;19.30;56.20;;;;;;5010226;28;20420;-68
2023/11/29 05:09:21;;;;;;;1.30;1.13;;;19.20;56.10;;;;;;5010294;28;20223;-68
2023/11/29 05:11:47;;;;;;;1.97;1.50;;;19.20;56.10;;;;;;5010147;28;20262;-68
2023/11/29 05:14:13;;;;;;;1.00;0.90;;;19.20;56.10;;;;;;5010236;28;20203;-68
2023/11/29 05:16:38;;;;;;;2.00;1.33;;;19.20;56.10;;;;;;5010139;28;20677;-68
2023/11/29 05:19:05;;;;;;;1.37;0.90;;;19.20;56.20;;;;;;5010383;28;20550;-68
2023/11/29 05:21:31;;;;;;;1.40;1.10;;;19.20;56.10;;;;;;5013905;28;20657;-68
2023/11/29 05:23:57;;;;;;;1.20;1.10;;;19.20;56.20;;;;;;5014150;28;20493;-68
2023/11/29 05:26:22;;;;;;;2.10;1.03;;;19.20;56.20;;;;;;5014124;28;20196;-68
2023/11/29 05:28:48;;;;;;;1.43;1.20;;;19.20;56.20;;;;;;5014052;28;20191;-68
2023/11/29 05:31:14;;;;;;;1.50;0.93;;;19.20;56.20;;;;;;5013850;28;20204;-68
2023/11/29 05:33:40;;;;;;;1.50;0.90;;;19.20;56.20;;;;;;5013971;28;20274;-68
2023/11/29 05:36:06;;;;;;;1.63;1.00;;;19.20;56.20;;;;;;5013831;28;20462;-68
2023/11/29 05:38:32;;;;;;;1.30;0.97;;;19.20;56.20;;;;;;5013719;28;20654;-68
2023/11/29 05:40:57;;;;;;;1.43;1.00;;;19.20;56.20;;;;;;5012452;28;20509;-68
2023/11/29 05:43:23;;;;;;;1.60;1.00;;;19.20;56.20;;;;;;4996729;28;20209;-66
2023/11/29 05:45:49;;;;;;;1.30;1.03;;;19.20;56.20;;;;;;4993429;28;20661;-68
2023/11/29 05:48:15;;;;;;;1.30;1.03;;;19.20;56.20;;;;;;4993857;28;20287;-68
2023/11/29 05:50:40;;;;;;;1.97;1.30;;;19.20;56.20;;;;;;4992923;28;20193;-68
2023/11/29 05:53:06;;;;;;;1.10;0.80;;;19.20;56.20;;;;;;4992319;28;20209;-68
2023/11/29 05:55:34;;;;;;;1.20;1.10;;;19.20;56.20;;;;;;4992692;28;20208;-68
2023/11/29 05:58:00;;;;;;;1.60;1.00;;;19.20;56.20;;;;;;4993699;28;20226;-68
2023/11/29 06:00:25;;;;;;;1.10;1.00;;;19.20;56.20;;;;;;4993901;28;20412;-68
2023/11/29 06:02:51;;;;;;;1.50;1.10;;;19.20;56.20;;;;;;4993823;28;20420;-68
2023/11/29 06:05:17;;;;;;;1.00;0.90;;;19.20;56.20;;;;;;4994270;28;20208;-68
2023/11/29 06:07:43;;;;;;;1.10;1.00;;;19.20;56.20;;;;;;4993799;28;20176;-68
2023/11/29 06:10:09;;;;;;;1.40;1.00;;;19.20;56.20;;;;;;4993853;28;20418;-68
2023/11/29 06:12:38;;;;;;;1.63;1.40;;;19.20;56.20;;;;;;4993826;28;20288;-67
2023/11/29 06:15:05;;;;;;;1.37;1.10;;;19.20;56.20;;;;;;4993822;28;20510;-67
2023/11/29 06:17:35;;;;;;;1.00;0.83;;;19.20;56.20;;;;;;4993628;28;20448;-67
2023/11/29 06:20:11;;;;;;;1.83;1.17;;;19.20;56.20;;;;;;4993627;28;20795;-68
2023/11/29 06:22:37;;;;;;;1.40;1.10;;;19.20;56.20;;;;;;4993548;28;20415;-67
2023/11/29 06:25:04;;;;;;;1.40;1.10;;;19.20;56.20;;;;;;4993543;28;20459;-66
2023/11/29 06:27:30;;;;;;;1.60;1.20;;;19.20;56.20;;;;;;4992183;28;20691;-68
2023/11/29 06:29:57;;;;;;;2.37;1.00;;;19.20;56.20;;;;;;4993221;28;20483;-67
2023/11/29 06:32:22;;;;;;;1.47;1.23;;;19.20;56.10;;;;;;4993655;28;20628;-67
2023/11/29 06:34:50;;;;;;;1.40;1.10;;;19.20;55.80;;;;;;4991965;28;20440;-67
2023/11/29 06:37:15;;;;;;;1.80;1.10;;;19.20;56.10;;;;;;4991947;28;20189;-68
2023/11/29 06:39:41;;;;;;;1.43;1.20;;;19.20;56.10;;;;;;4991866;28;20415;-68
2023/11/29 06:42:06;;;;;;;2.10;1.17;;;19.20;56.10;;;;;;4991880;28;20189;-67
2023/11/29 06:44:32;;;;;;;2.37;1.00;;;19.20;56.10;;;;;;4993115;28;20276;-68
2023/11/29 06:46:58;;;;;;;1.50;1.00;;;19.20;56.20;;;;;;4993213;28;20640;-67
2023/11/29 06:49:26;;;;;;;1.70;1.10;;;19.20;56.10;;;;;;4993193;28;20181;-67
2023/11/29 06:51:52;;;;;;;1.60;1.20;;;19.30;56.10;;;;;;4992953;28;20467;-67
2023/11/29 06:54:18;;;;;;;2.27;0.90;;;19.30;56.10;;;;;;4992936;28;20435;-67
2023/11/29 06:56:43;;;;;;;1.40;0.93;;;19.30;56.20;;;;;;4992911;28;20925;-68
2023/11/29 06:59:09;;;;;;;1.20;1.03;;;19.30;56.10;;;;;;4993327;28;20184;-67
2023/11/29 07:01:35;;;;;;;2.53;1.20;;;19.30;56.10;;;;;;4992887;28;20185;-68
2023/11/29 07:04:01;;;;;;;1.37;1.07;;;19.30;56.10;;;;;;4992830;28;20173;-68
2023/11/29 07:06:26;;;;;;;1.50;0.97;;;19.30;56.10;;;;;;4992812;28;20519;-68
2023/11/29 07:08:52;;;;;;;1.53;1.00;;;19.30;56.10;;;;;;4992787;28;20567;-67
2023/11/29 07:11:18;;;;;;;2.00;0.93;;;19.30;56.10;;;;;;4992704;28;20324;-67
2023/11/29 07:13:44;;;;;;;1.20;0.90;;;19.30;56.10;;;;;;4992745;28;20670;-68
2023/11/29 07:16:09;;;;;;;1.93;1.00;;;19.30;56.10;;;;;;4992375;28;20436;-67
2023/11/29 07:18:37;;;;;;;1.60;1.17;;;19.40;56.20;;;;;;4992504;28;20169;-67
2023/11/29 07:21:03;;;;;;;1.37;1.00;;;19.40;56.20;;;;;;4992824;28;20227;-68
2023/11/29 07:23:29;;;;;;;1.30;0.90;;;19.40;56.10;;;;;;4991129;28;20424;-67
2023/11/29 07:25:55;;;;;;;2.07;1.10;;;19.40;56.10;;;;;;4992311;28;20600;-68
2023/11/29 07:28:20;;;;;;;1.47;1.03;;;19.40;56.10;;;;;;4992449;28;20639;-68
2023/11/29 07:30:46;;;;;;;1.30;1.10;;;19.40;56.10;;;;;;4992336;28;20177;-68
2023/11/29 07:33:12;;;;;;;1.40;1.00;;;19.40;56.10;;;;;;4992152;28;20694;-67
2023/11/29 07:35:37;;;;;;;1.80;0.90;;;19.40;56.10;;;;;;4992249;28;20193;-68
2023/11/29 07:38:03;;;;;;;1.50;1.10;;;19.40;56.10;;;;;;4992442;28;20247;-68
2023/11/29 07:40:28;;;;;;;1.47;1.20;;;19.50;56.10;;;;;;4992391;28;20181;-68
2023/11/29 07:42:54;;;;;;;1.10;0.90;;;19.40;56.00;;;;;;4991379;28;20275;-68
2023/11/29 07:45:20;;;;;;;4.07;1.00;;;19.50;56.10;;;;;;4991987;28;20201;-69
2023/11/29 07:47:46;;;;;;;2.67;0.97;;;19.50;56.10;;;;;;4992057;28;20188;-68
2023/11/29 07:50:14;;;;;;;1.40;0.90;;;19.50;56.20;;;;;;4992140;28;20420;-68
2023/11/29 07:52:40;;;;;;;1.43;0.90;;;19.50;56.10;;;;;;4991978;28;20209;-67
2023/11/29 07:55:09;;;;;;;1.10;0.90;;;19.50;56.20;;;;;;4991844;28;20811;-68
2023/11/29 07:57:35;;;;;;;1.00;0.80;;;19.50;56.20;;;;;;4992003;28;20451;-67
2023/11/29 08:00:03;;;;;;;1.10;1.00;;;19.50;56.20;;;;;;4991711;28;20463;-68
2023/11/29 08:02:29;;;;;;;1.77;1.07;;;19.50;56.20;;;;;;4991778;28;20577;-67
2023/11/29 08:04:54;;;;;;;1.33;0.93;;;19.50;56.20;;;;;;4991665;28;20458;-68
2023/11/29 08:07:20;;;;;;;1.53;1.00;;;19.50;56.10;;;;;;4991616;28;20181;-68
2023/11/29 08:09:47;;;;;;;2.10;1.00;;;19.50;56.10;;;;;;4991858;28;20200;-68
2023/11/29 08:12:14;;;;;;;2.33;1.10;;;19.50;56.20;;;;;;4991695;28;20204;-68
2023/11/29 08:14:40;;;;;;;1.40;1.03;;;19.50;56.10;;;;;;4990074;28;20467;-68
2023/11/29 08:17:05;;;;;;;1.87;1.20;;;19.50;56.20;;;;;;4991456;28;20903;-68
2023/11/29 08:19:31;;;;;;;2.70;1.33;;;19.50;56.10;;;;;;4991424;28;20181;-68
2023/11/29 08:21:57;;;;;;;1.30;1.00;;;19.50;56.10;;;;;;4991394;28;20183;-67
2023/11/29 08:24:22;;;;;;;4.33;1.20;;;19.50;56.20;;;;;;4991354;28;20431;-68
2023/11/29 08:26:48;;;;;;;2.13;1.20;;;19.50;56.20;;;;;;4991203;28;20200;-68
2023/11/29 08:29:14;;;;;;;1.40;1.07;;;19.50;56.20;;;;;;4991209;28;20183;-68
2023/11/29 08:31:39;;;;;;;2.20;1.13;;;19.50;56.10;;;;;;4991160;28;20247;-68
2023/11/29 08:34:05;;;;;;;2.00;1.30;;;19.60;56.20;;;;;;4991262;28;20165;-67
2023/11/29 08:36:30;;;;;;;1.80;1.17;;;19.50;56.10;;;;;;4991144;28;20177;-68
2023/11/29 08:38:56;;;;;;;2.47;1.20;;;19.50;56.10;;;;;;4991131;28;20173;-69
2023/11/29 08:41:22;;;;;;;1.57;1.10;;;19.50;56.10;;;;;;4991124;28;20590;-68
2023/11/29 08:43:47;;;;;;;2.33;1.00;;;19.50;56.10;;;;;;4991124;28;20200;-66
2023/11/29 08:46:14;;;;;;;1.30;1.07;;;19.50;56.10;;;;;;4991341;28;20279;-68
2023/11/29 08:48:39;;;;;;;3.30;1.20;;;19.50;56.20;;;;;;4991065;28;20180;-68
2023/11/29 08:51:08;;;;;;;1.50;1.10;;;19.50;56.20;;;;;;4990854;28;20418;-68
2023/11/29 08:53:34;;;;;;;1.17;0.93;;;19.50;56.20;;;;;;4990997;28;20177;-68
2023/11/29 08:55:59;;;;;;;1.53;1.17;;;19.50;56.20;;;;;;4991216;28;20487;-67
2023/11/29 08:58:25;;;;;;;1.47;1.00;;;19.50;56.20;;;;;;4991016;28;20256;-67
2023/11/29 09:00:50;;;;;;;1.30;0.90;;;19.50;56.20;;;;;;4990927;28;20667;-68
2023/11/29 09:03:17;;;;;;;2.40;1.10;;;19.50;56.30;;;;;;4989659;28;20646;-68
2023/11/29 09:05:43;;;;;;;1.50;0.90;;;19.50;56.20;;;;;;4991152;28;20304;-68
2023/11/29 09:08:09;;;;;;;2.23;1.13;;;19.50;56.20;;;;;;4990971;28;20412;-68
2023/11/29 09:10:38;;;;;;;1.83;1.00;;;19.50;56.20;;;;;;4990928;28;20256;-68
2023/11/29 09:13:05;;;;;;;1.17;0.93;;;19.50;56.20;;;;;;4990716;28;20475;-68
2023/11/29 09:15:34;;;;;;;1.10;0.90;;;19.50;56.20;;;;;;4991073;28;20954;-67
2023/11/29 09:18:01;;;;;;;1.27;0.90;;;19.50;56.20;;;;;;4990702;28;20415;-67
2023/11/29 09:20:26;;;;;;;1.60;1.00;;;19.50;56.20;;;;;;4990690;28;20404;-68
2023/11/29 09:22:53;;;;;;;1.20;0.90;;;19.50;56.20;;;;;;4989395;28;20424;-68
2023/11/29 09:25:19;;;;;;;1.50;1.20;;;19.50;56.20;;;;;;4989298;28;20350;-67
2023/11/29 09:27:44;;;;;;;1.73;1.10;;;19.50;56.20;;;;;;4990680;28;20503;-67
2023/11/29 09:30:11;;;;;;;1.37;1.00;;;19.50;56.20;;;;;;4990678;28;20223;-68
2023/11/29 09:32:36;;;;;;;1.03;0.90;;;19.50;56.20;;;;;;4990552;28;20208;-68
2023/11/29 09:35:04;;;;;;;1.90;1.43;;;19.50;56.20;;;;;;4990604;28;20432;-67
2023/11/29 09:37:30;;;;;;;1.30;0.90;;;19.50;56.20;;;;;;4989326;28;20211;-67
2023/11/29 09:39:56;;;;;;;1.73;1.00;;;19.50;56.20;;;;;;4990487;28;20408;-68
2023/11/29 09:42:24;;;;;;;1.00;0.80;;;19.50;56.20;;;;;;4990538;28;20515;-68
2023/11/29 09:44:53;;;;;;;1.40;1.10;;;19.50;56.20;;;;;;4990491;28;20679;-68
2023/11/29 09:47:23;;;;;;;5.13;1.53;;;19.50;56.20;;;;;;4990569;28;20412;-67
2023/11/29 09:49:49;;;;;;;2.23;1.00;;;19.50;56.20;;;;;;4990479;28;20418;-67
2023/11/29 09:52:16;;;;;;;1.30;1.10;;;19.50;56.20;;;;;;4989000;28;20510;-68
2023/11/29 09:54:42;;;;;;;1.10;0.90;;;19.50;56.20;;;;;;4990335;28;20428;-67
2023/11/29 09:57:08;;;;;;;1.40;0.97;;;19.50;56.30;;;;;;4990378;28;20467;-68
2023/11/29 09:59:34;;;;;;;1.30;0.90;;;19.50;56.30;;;;;;4990335;28;20404;-68
2023/11/29 10:02:03;;;;;;;1.50;1.00;;;19.50;56.30;;;;;;4990188;28;20252;-68
2023/11/29 10:04:34;;;;;;;2.17;1.10;;;19.50;56.30;;;;;;4988994;28;20770;-67
2023/11/29 10:07:01;;;;;;;1.30;0.93;;;19.50;56.30;;;;;;4993740;28;20942;-68
2023/11/29 10:09:27;;;;;;;1.00;0.90;;;19.50;56.30;;;;;;4993877;28;20478;-68
2023/11/29 10:11:53;;;;;;;1.20;0.90;;;19.50;56.30;;;;;;4993712;28;20300;-68
2023/11/29 10:14:20;;;;;;;1.80;1.10;;;19.50;56.30;;;;;;4993958;28;20638;-68
2023/11/29 10:16:48;;;;;;;1.43;0.83;;;19.50;56.30;;;;;;4992075;28;20446;-67
2023/11/29 10:19:16;;;;;;;1.00;0.83;;;19.50;56.30;;;;;;4992981;28;20430;-68
2023/11/29 10:21:42;;;;;;;1.00;0.70;;;19.50;56.30;;;;;;4993691;28;20934;-66
2023/11/29 10:24:08;;;;;;;1.20;0.90;;;19.50;56.30;;;;;;4992130;28;20816;-68
2023/11/29 10:26:34;;;;;;;1.10;0.90;;;19.50;56.40;;;;;;4993347;28;20444;-68
2023/11/29 10:29:00;;;;;;;1.20;1.00;;;19.50;56.30;;;;;;4993412;28;20907;-69
2023/11/29 10:31:27;;;;;;;1.63;0.90;;;19.50;56.40;;;;;;4993341;28;20284;-67
2023/11/29 10:33:54;;;;;;;1.53;1.20;;;19.50;56.40;;;;;;4993344;28;20173;-67
2023/11/29 10:36:20;;;;;;;1.10;0.83;;;19.50;56.30;;;;;;4993350;28;20544;-68
2023/11/29 10:38:55;;;;;;;1.10;0.90;;;19.50;56.30;;;;;;4993367;28;20503;-67
2023/11/29 10:41:23;;;;;;;1.33;1.13;;;19.50;56.40;;;;;;4992073;28;20392;-68
2023/11/29 10:43:50;;;;;;;1.83;1.07;;;19.50;56.30;;;;;;4993248;28;20420;-66
2023/11/29 10:46:22;;;;;;;1.63;1.00;;;19.50;56.30;;;;;;4993049;28;20443;-68
2023/11/29 10:48:58;;;;;;;1.40;1.00;;;19.60;56.40;;;;;;4993170;28;20393;-69
2023/11/29 10:51:25;;;;;;;1.70;0.97;;;19.60;56.40;;;;;;4992998;28;20499;-68
2023/11/29 10:53:52;;;;;;;2.23;1.73;;;19.60;56.40;;;;;;4993221;28;20787;-68
2023/11/29 10:56:19;;;;;;;2.03;1.10;;;19.60;56.40;;;;;;4992843;28;20432;-67
2023/11/29 10:59:05;;;;;;;1.23;1.00;;;19.60;56.40;;;;;;4992877;28;20416;-68
2023/11/29 11:01:34;;;;;;;1.67;1.07;;;19.60;56.40;;;;;;4992944;28;20468;-67
2023/11/29 11:04:00;;;;;;;2.40;0.90;;;19.60;56.40;;;;;;4992907;28;20790;-68
2023/11/29 11:06:29;;;;;;;1.97;1.00;;;19.60;56.40;;;;;;4992658;28;20503;-67
2023/11/29 11:08:57;;;;;;;1.60;1.13;;;19.60;56.40;;;;;;4992704;28;20416;-68
2023/11/29 11:11:41;;;;;;;1.10;0.90;;;19.60;56.40;;;;;;4992551;28;20470;-68
2023/11/29 11:14:19;;;;;;;0.97;0.80;;;19.60;56.40;;;;;;4992519;28;20478;-67
2023/11/29 11:17:06;;;;;;;2.23;1.00;;;19.60;56.40;;;;;;4992165;28;20409;-68
2023/11/29 11:19:39;;;;;;;1.10;0.80;;;19.50;56.30;;;;;;4992481;28;20887;-67
2023/11/29 11:22:12;;;;;;;1.00;0.80;;;19.50;56.30;;;;;;4992684;28;20427;-67
2023/11/29 11:24:53;;;;;;;1.20;0.93;;;19.50;56.30;;;;;;4992349;28;20439;-68
2023/11/29 11:27:21;;;;;;;1.10;0.90;;;19.50;56.30;;;;;;4992251;28;20878;-67
2023/11/29 11:29:46;;;;;;;1.37;0.90;;;19.50;56.30;;;;;;4992296;28;20427;-68
2023/11/29 11:32:12;;;;;;;1.10;0.70;;;19.50;56.30;;;;;;4992448;28;20455;-68
2023/11/29 11:34:39;;;;;;;1.20;0.80;;;19.50;56.20;;;;;;4992054;28;20197;-67
2023/11/29 11:37:05;;;;;;;1.67;1.00;;;19.50;56.20;;;;;;4992090;28;20173;-67
2023/11/29 11:39:31;;;;;;;1.37;0.90;;;19.50;56.20;;;;;;4992077;28;20413;-68
2023/11/29 11:41:56;;;;;;;1.87;0.87;;;19.50;56.30;;;;;;4992017;28;20945;-68
2023/11/29 11:44:22;;;;;;;1.10;0.93;;;19.50;56.20;;;;;;4991907;28;20200;-68
2023/11/29 11:46:48;;;;;;;1.40;0.97;;;19.50;56.30;;;;;;4991939;28;20528;-67
2023/11/29 11:49:14;;;;;;;1.50;1.10;;;19.50;56.30;;;;;;4992119;28;20431;-69
2023/11/29 11:51:39;;;;;;;1.10;0.80;;;19.50;56.30;;;;;;4992179;28;20215;-68
2023/11/29 11:54:05;;;;;;;1.23;0.80;;;19.50;56.30;;;;;;4991718;28;20264;-67
2023/11/29 11:56:30;;;;;;;0.90;0.70;;;19.50;56.30;;;;;;4991772;28;20181;-68
2023/11/29 11:58:56;;;;;;;1.43;1.10;;;19.50;56.30;;;;;;4992001;28;20185;-68
2023/11/29 12:01:22;;;;;;;1.10;0.90;;;19.50;56.30;;;;;;4991575;28;20180;-68
2023/11/29 12:03:51;;;;;;;1.10;0.90;;;19.50;56.30;;;;;;4991391;28;20177;-68
2023/11/29 12:06:17;;;;;;;1.20;1.00;;;19.50;56.30;;;;;;4991710;28;20205;-68
2023/11/29 12:08:44;;;;;;;1.63;0.90;;;19.50;56.30;;;;;;4991520;28;20464;-68
2023/11/29 12:11:10;;;;;;;1.80;0.90;;;19.50;56.30;;;;;;4991424;28;20412;-68
2023/11/29 12:13:36;;;;;;;1.00;0.80;;;19.50;56.30;;;;;;4991386;28;20907;-68
2023/11/29 12:16:15;;;;;;;0.90;0.80;;;19.50;56.30;;;;;;4991288;28;20526;-68
2023/11/29 12:18:41;;;;;;;1.90;0.90;;;19.50;56.30;;;;;;4991602;28;20482;-68
2023/11/29 12:21:07;;;;;;;1.40;1.00;;;19.50;56.40;;;;;;4990683;28;20444;-67
2023/11/29 12:23:32;;;;;;;1.13;0.90;;;19.50;56.40;;;;;;4991222;28;20203;-67
2023/11/29 12:25:58;;;;;;;1.00;0.80;;;19.50;56.40;;;;;;4991003;28;20463;-66
2023/11/29 12:28:25;;;;;;;1.20;0.80;;;19.50;56.40;;;;;;4990861;28;20180;-68
2023/11/29 12:30:56;;;;;;;1.20;0.90;;;19.50;56.40;;;;;;4989870;28;20195;-68
2023/11/29 12:33:22;;;;;;;0.90;0.73;;;19.50;56.30;;;;;;4991214;28;20483;-68
2023/11/29 12:35:48;;;;;;;6.53;1.17;;;19.50;56.30;;;;;;4992695;28;20547;-67
2023/11/29 12:38:13;;;;;;;3.23;1.00;;;19.50;56.40;;;;;;4997269;28;20189;-66
2023/11/29 12:40:39;;;;;;;2.40;1.17;;;19.50;56.40;;;;;;5010556;28;20586;-67
2023/11/29 12:43:05;;;;;;;5.33;2.37;;;19.50;56.40;;;;;;5010473;28;20187;-66